sensor_id;sensor_type;location;lat;lon;timestamp;temperature;humidity
81210;DHT22;70685;52.496;13.420;2023-07-13T00:02:18;21.30;49.70
81210;DHT22;70685;52.496;13.420;2023-07-13T00:04:43;21.40;49.30
81210;DHT22;70685;52.496;13.420;2023-07-13T00:07:11;21.30;49.50
81210;DHT22;70685;52.496;13.420;2023-07-13T00:09:40;21.30;49.70
81210;DHT22;70685;52.496;13.420;2023-07-13T00:14:50;21.30;49.70
81210;DHT22;70685;52.496;13.420;2023-07-13T00:17:15;21.20;49.90
81210;DHT22;70685;52.496;13.420;2023-07-13T00:19:44;21.20;50.10
81210;DHT22;70685;52.496;13.420;2023-07-13T00:22:09;21.20;50.30
81210;DHT22;70685;52.496;13.420;2023-07-13T00:24:35;21.10;50.40
81210;DHT22;70685;52.496;13.420;2023-07-13T00:27:01;21.10;50.50
81210;DHT22;70685;52.496;13.420;2023-07-13T00:29:27;21.10;50.70
81210;DHT22;70685;52.496;13.420;2023-07-13T00:31:52;21.10;50.40
81210;DHT22;70685;52.496;13.420;2023-07-13T00:34:23;21.00;50.70
81210;DHT22;70685;52.496;13.420;2023-07-13T00:36:51;21.00;50.50
81210;DHT22;70685;52.496;13.420;2023-07-13T00:39:17;20.90;50.60
81210;DHT22;70685;52.496;13.420;2023-07-13T00:41:45;20.90;50.80
81210;DHT22;70685;52.496;13.420;2023-07-13T00:44:14;20.90;51.00
81210;DHT22;70685;52.496;13.420;2023-07-13T00:46:42;20.90;50.80
81210;DHT22;70685;52.496;13.420;2023-07-13T00:49:13;20.90;51.00
81210;DHT22;70685;52.496;13.420;2023-07-13T00:54:17;20.70;51.10
81210;DHT22;70685;52.496;13.420;2023-07-13T00:56:48;20.60;51.30
81210;DHT22;70685;52.496;13.420;2023-07-13T00:59:16;20.50;51.50
81210;DHT22;70685;52.496;13.420;2023-07-13T01:01:46;20.60;51.40
81210;DHT22;70685;52.496;13.420;2023-07-13T01:04:14;20.50;51.50
81210;DHT22;70685;52.496;13.420;2023-07-13T01:06:42;20.40;51.70
81210;DHT22;70685;52.496;13.420;2023-07-13T01:09:09;20.40;51.60
81210;DHT22;70685;52.496;13.420;2023-07-13T01:11:40;20.40;51.40
81210;DHT22;70685;52.496;13.420;2023-07-13T01:14:07;20.30;51.70
81210;DHT22;70685;52.496;13.420;2023-07-13T01:16:34;20.20;52.10
81210;DHT22;70685;52.496;13.420;2023-07-13T01:19:01;20.10;52.60
81210;DHT22;70685;52.496;13.420;2023-07-13T01:21:32;20.00;52.90
81210;DHT22;70685;52.496;13.420;2023-07-13T01:23:58;20.20;52.80
81210;DHT22;70685;52.496;13.420;2023-07-13T01:26:23;20.30;52.60
81210;DHT22;70685;52.496;13.420;2023-07-13T01:28:49;20.40;52.60
81210;DHT22;70685;52.496;13.420;2023-07-13T01:31:15;20.40;52.50
81210;DHT22;70685;52.496;13.420;2023-07-13T01:33:43;20.40;52.60
81210;DHT22;70685;52.496;13.420;2023-07-13T01:36:10;20.40;52.60
81210;DHT22;70685;52.496;13.420;2023-07-13T01:38:36;20.30;52.80
81210;DHT22;70685;52.496;13.420;2023-07-13T01:41:03;20.30;52.80
81210;DHT22;70685;52.496;13.420;2023-07-13T01:43:31;20.30;52.90
81210;DHT22;70685;52.496;13.420;2023-07-13T01:45:57;20.30;53.10
81210;DHT22;70685;52.496;13.420;2023-07-13T01:48:23;20.30;53.10
81210;DHT22;70685;52.496;13.420;2023-07-13T01:50:48;20.40;53.00
81210;DHT22;70685;52.496;13.420;2023-07-13T01:53:14;20.60;52.50
81210;DHT22;70685;52.496;13.420;2023-07-13T01:55:41;20.60;52.30
81210;DHT22;70685;52.496;13.420;2023-07-13T01:58:09;20.50;52.40
81210;DHT22;70685;52.496;13.420;2023-07-13T02:00:35;20.50;52.50
81210;DHT22;70685;52.496;13.420;2023-07-13T02:03:00;20.50;52.50
81210;DHT22;70685;52.496;13.420;2023-07-13T02:05:26;20.60;52.70
81210;DHT22;70685;52.496;13.420;2023-07-13T02:07:52;20.60;52.40
81210;DHT22;70685;52.496;13.420;2023-07-13T02:10:18;20.60;52.20
81210;DHT22;70685;52.496;13.420;2023-07-13T02:12:44;20.60;52.20
81210;DHT22;70685;52.496;13.420;2023-07-13T02:15:12;20.40;52.60
81210;DHT22;70685;52.496;13.420;2023-07-13T02:17:38;20.40;52.80
81210;DHT22;70685;52.496;13.420;2023-07-13T02:20:04;20.40;52.90
81210;DHT22;70685;52.496;13.420;2023-07-13T02:22:30;20.40;53.10
81210;DHT22;70685;52.496;13.420;2023-07-13T02:24:59;20.40;53.40
81210;DHT22;70685;52.496;13.420;2023-07-13T02:27:27;20.30;53.40
81210;DHT22;70685;52.496;13.420;2023-07-13T02:29:53;20.20;53.60
81210;DHT22;70685;52.496;13.420;2023-07-13T02:32:19;20.10;53.90
81210;DHT22;70685;52.496;13.420;2023-07-13T02:34:47;20.10;54.10
81210;DHT22;70685;52.496;13.420;2023-07-13T02:37:12;19.90;54.60
81210;DHT22;70685;52.496;13.420;2023-07-13T02:39:38;19.80;55.10
81210;DHT22;70685;52.496;13.420;2023-07-13T02:42:04;19.60;55.80
81210;DHT22;70685;52.496;13.420;2023-07-13T02:44:30;19.70;56.00
81210;DHT22;70685;52.496;13.420;2023-07-13T02:46:55;19.80;55.60
81210;DHT22;70685;52.496;13.420;2023-07-13T02:49:21;19.80;55.50
81210;DHT22;70685;52.496;13.420;2023-07-13T02:51:47;19.80;55.60
81210;DHT22;70685;52.496;13.420;2023-07-13T02:54:12;19.90;55.50
81210;DHT22;70685;52.496;13.420;2023-07-13T02:56:39;19.90;55.50
81210;DHT22;70685;52.496;13.420;2023-07-13T02:59:05;20.00;55.40
81210;DHT22;70685;52.496;13.420;2023-07-13T03:01:31;20.00;54.80
81210;DHT22;70685;52.496;13.420;2023-07-13T03:04:00;20.10;54.80
81210;DHT22;70685;52.496;13.420;2023-07-13T03:06:26;20.00;55.00
81210;DHT22;70685;52.496;13.420;2023-07-13T03:08:58;19.90;55.30
81210;DHT22;70685;52.496;13.420;2023-07-13T03:11:26;19.90;55.50
81210;DHT22;70685;52.496;13.420;2023-07-13T03:13:56;19.80;55.50
81210;DHT22;70685;52.496;13.420;2023-07-13T03:16:25;19.80;55.60
81210;DHT22;70685;52.496;13.420;2023-07-13T03:18:50;19.90;55.50
81210;DHT22;70685;52.496;13.420;2023-07-13T03:21:16;19.80;55.40
81210;DHT22;70685;52.496;13.420;2023-07-13T03:23:42;19.90;55.40
81210;DHT22;70685;52.496;13.420;2023-07-13T03:26:11;19.90;55.50
81210;DHT22;70685;52.496;13.420;2023-07-13T03:28:41;19.80;55.70
81210;DHT22;70685;52.496;13.420;2023-07-13T03:31:12;19.80;55.50
81210;DHT22;70685;52.496;13.420;2023-07-13T03:33:42;19.80;55.60
81210;DHT22;70685;52.496;13.420;2023-07-13T03:36:14;19.80;55.70
81210;DHT22;70685;52.496;13.420;2023-07-13T03:38:41;19.90;55.50
81210;DHT22;70685;52.496;13.420;2023-07-13T03:41:07;20.00;55.40
81210;DHT22;70685;52.496;13.420;2023-07-13T03:43:32;20.10;55.20
81210;DHT22;70685;52.496;13.420;2023-07-13T03:45:58;20.10;55.40
81210;DHT22;70685;52.496;13.420;2023-07-13T03:48:24;20.00;55.90
81210;DHT22;70685;52.496;13.420;2023-07-13T03:50:49;20.10;56.10
81210;DHT22;70685;52.496;13.420;2023-07-13T03:53:18;20.10;55.70
81210;DHT22;70685;52.496;13.420;2023-07-13T03:55:46;20.20;55.50
81210;DHT22;70685;52.496;13.420;2023-07-13T04:00:50;20.30;55.50
81210;DHT22;70685;52.496;13.420;2023-07-13T04:03:15;20.30;55.70
81210;DHT22;70685;52.496;13.420;2023-07-13T04:05:45;20.40;55.30
81210;DHT22;70685;52.496;13.420;2023-07-13T04:08:11;20.50;55.00
81210;DHT22;70685;52.496;13.420;2023-07-13T04:10:37;20.50;54.70
81210;DHT22;70685;52.496;13.420;2023-07-13T04:13:04;20.60;54.50
81210;DHT22;70685;52.496;13.420;2023-07-13T04:15:31;20.70;54.20
81210;DHT22;70685;52.496;13.420;2023-07-13T04:17:57;20.80;53.90
81210;DHT22;70685;52.496;13.420;2023-07-13T04:20:24;20.80;53.60
81210;DHT22;70685;52.496;13.420;2023-07-13T04:22:52;20.70;54.00
81210;DHT22;70685;52.496;13.420;2023-07-13T04:25:21;20.70;54.20
81210;DHT22;70685;52.496;13.420;2023-07-13T04:27:50;20.80;53.90
81210;DHT22;70685;52.496;13.420;2023-07-13T04:30:15;20.80;54.00
81210;DHT22;70685;52.496;13.420;2023-07-13T04:32:43;20.80;53.90
81210;DHT22;70685;52.496;13.420;2023-07-13T04:35:09;20.70;53.60
81210;DHT22;70685;52.496;13.420;2023-07-13T04:37:37;20.70;53.80
81210;DHT22;70685;52.496;13.420;2023-07-13T04:40:03;20.80;53.30
81210;DHT22;70685;52.496;13.420;2023-07-13T04:42:29;20.80;53.20
81210;DHT22;70685;52.496;13.420;2023-07-13T04:44:57;20.80;53.40
81210;DHT22;70685;52.496;13.420;2023-07-13T04:47:25;20.90;53.50
81210;DHT22;70685;52.496;13.420;2023-07-13T04:49:51;20.90;53.40
81210;DHT22;70685;52.496;13.420;2023-07-13T04:52:17;21.00;53.30
81210;DHT22;70685;52.496;13.420;2023-07-13T04:54:42;21.00;52.90
81210;DHT22;70685;52.496;13.420;2023-07-13T04:57:08;21.10;52.80
81210;DHT22;70685;52.496;13.420;2023-07-13T04:59:34;21.20;52.60
81210;DHT22;70685;52.496;13.420;2023-07-13T05:02:02;21.30;52.20
81210;DHT22;70685;52.496;13.420;2023-07-13T05:04:28;21.30;51.90
81210;DHT22;70685;52.496;13.420;2023-07-13T05:06:54;21.40;51.90
81210;DHT22;70685;52.496;13.420;2023-07-13T05:09:19;21.50;51.40
81210;DHT22;70685;52.496;13.420;2023-07-13T05:11:50;21.60;51.60
81210;DHT22;70685;52.496;13.420;2023-07-13T05:14:15;21.60;51.30
81210;DHT22;70685;52.496;13.420;2023-07-13T05:16:44;21.60;51.10
81210;DHT22;70685;52.496;13.420;2023-07-13T05:19:10;21.60;50.90
81210;DHT22;70685;52.496;13.420;2023-07-13T05:21:36;21.70;50.60
81210;DHT22;70685;52.496;13.420;2023-07-13T05:24:01;21.80;50.40
81210;DHT22;70685;52.496;13.420;2023-07-13T05:26:27;21.80;50.30
81210;DHT22;70685;52.496;13.420;2023-07-13T05:28:52;21.80;50.30
81210;DHT22;70685;52.496;13.420;2023-07-13T05:31:18;21.80;50.30
81210;DHT22;70685;52.496;13.420;2023-07-13T05:33:46;21.90;50.20
81210;DHT22;70685;52.496;13.420;2023-07-13T05:36:14;22.00;50.40
81210;DHT22;70685;52.496;13.420;2023-07-13T05:38:40;22.10;49.50
81210;DHT22;70685;52.496;13.420;2023-07-13T05:41:06;22.60;48.80
81210;DHT22;70685;52.496;13.420;2023-07-13T05:43:32;23.90;45.30
81210;DHT22;70685;52.496;13.420;2023-07-13T05:45:58;25.30;42.20
81210;DHT22;70685;52.496;13.420;2023-07-13T05:48:24;26.60;39.60
81210;DHT22;70685;52.496;13.420;2023-07-13T05:50:49;27.90;37.20
81210;DHT22;70685;52.496;13.420;2023-07-13T05:53:17;29.00;35.70
81210;DHT22;70685;52.496;13.420;2023-07-13T05:55:49;29.90;33.80
81210;DHT22;70685;52.496;13.420;2023-07-13T05:58:18;30.70;32.30
81210;DHT22;70685;52.496;13.420;2023-07-13T06:00:46;31.30;31.50
81210;DHT22;70685;52.496;13.420;2023-07-13T06:03:12;32.00;30.80
81210;DHT22;70685;52.496;13.420;2023-07-13T06:05:42;32.20;29.50
81210;DHT22;70685;52.496;13.420;2023-07-13T06:08:10;32.70;29.10
81210;DHT22;70685;52.496;13.420;2023-07-13T06:10:37;33.20;28.90
81210;DHT22;70685;52.496;13.420;2023-07-13T06:13:07;33.70;28.30
81210;DHT22;70685;52.496;13.420;2023-07-13T06:15:33;34.10;27.80
81210;DHT22;70685;52.496;13.420;2023-07-13T06:18:01;34.40;27.40
81210;DHT22;70685;52.496;13.420;2023-07-13T06:20:29;34.70;27.30
81210;DHT22;70685;52.496;13.420;2023-07-13T06:22:55;34.80;26.80
81210;DHT22;70685;52.496;13.420;2023-07-13T06:25:22;34.90;26.40
81210;DHT22;70685;52.496;13.420;2023-07-13T06:27:48;35.00;26.60
81210;DHT22;70685;52.496;13.420;2023-07-13T06:30:14;34.90;26.40
81210;DHT22;70685;52.496;13.420;2023-07-13T06:32:40;35.10;26.60
81210;DHT22;70685;52.496;13.420;2023-07-13T06:35:07;35.40;26.40
81210;DHT22;70685;52.496;13.420;2023-07-13T06:37:33;35.70;26.10
81210;DHT22;70685;52.496;13.420;2023-07-13T06:39:59;36.20;25.60
81210;DHT22;70685;52.496;13.420;2023-07-13T06:42:27;36.40;25.10
81210;DHT22;70685;52.496;13.420;2023-07-13T06:44:52;36.70;24.70
81210;DHT22;70685;52.496;13.420;2023-07-13T06:47:18;36.90;25.60
81210;DHT22;70685;52.496;13.420;2023-07-13T06:49:43;37.00;24.80
81210;DHT22;70685;52.496;13.420;2023-07-13T06:52:12;37.00;24.80
81210;DHT22;70685;52.496;13.420;2023-07-13T06:54:40;37.10;24.50
81210;DHT22;70685;52.496;13.420;2023-07-13T06:57:05;37.00;24.20
81210;DHT22;70685;52.496;13.420;2023-07-13T06:59:31;36.90;24.70
81210;DHT22;70685;52.496;13.420;2023-07-13T07:01:59;36.90;24.50
81210;DHT22;70685;52.496;13.420;2023-07-13T07:04:24;37.00;24.40
81210;DHT22;70685;52.496;13.420;2023-07-13T07:06:50;37.00;24.00
81210;DHT22;70685;52.496;13.420;2023-07-13T07:09:18;37.20;24.10
81210;DHT22;70685;52.496;13.420;2023-07-13T07:11:44;37.40;23.80
81210;DHT22;70685;52.496;13.420;2023-07-13T07:14:09;37.70;23.80
81210;DHT22;70685;52.496;13.420;2023-07-13T07:16:35;37.30;23.20
81210;DHT22;70685;52.496;13.420;2023-07-13T07:19:03;37.70;23.30
81210;DHT22;70685;52.496;13.420;2023-07-13T07:21:31;37.60;22.70
81210;DHT22;70685;52.496;13.420;2023-07-13T07:23:56;38.00;22.90
81210;DHT22;70685;52.496;13.420;2023-07-13T07:26:22;38.40;22.40
81210;DHT22;70685;52.496;13.420;2023-07-13T07:28:48;38.20;22.30
81210;DHT22;70685;52.496;13.420;2023-07-13T07:31:14;38.10;22.60
81210;DHT22;70685;52.496;13.420;2023-07-13T07:33:39;37.90;22.50
81210;DHT22;70685;52.496;13.420;2023-07-13T07:36:05;38.40;22.70
81210;DHT22;70685;52.496;13.420;2023-07-13T07:38:31;37.20;22.80
81210;DHT22;70685;52.496;13.420;2023-07-13T07:41:04;35.80;23.70
81210;DHT22;70685;52.496;13.420;2023-07-13T07:43:30;34.60;24.70
81210;DHT22;70685;52.496;13.420;2023-07-13T07:45:59;33.60;25.90
81210;DHT22;70685;52.496;13.420;2023-07-13T07:48:27;32.90;26.60
81210;DHT22;70685;52.496;13.420;2023-07-13T07:50:55;32.60;27.10
81210;DHT22;70685;52.496;13.420;2023-07-13T07:53:21;31.80;27.90
81210;DHT22;70685;52.496;13.420;2023-07-13T07:55:48;32.20;27.80
81210;DHT22;70685;52.496;13.420;2023-07-13T07:58:14;32.40;27.50
81210;DHT22;70685;52.496;13.420;2023-07-13T08:00:42;32.30;27.70
81210;DHT22;70685;52.496;13.420;2023-07-13T08:03:10;31.50;28.20
81210;DHT22;70685;52.496;13.420;2023-07-13T08:05:36;30.90;29.10
81210;DHT22;70685;52.496;13.420;2023-07-13T08:08:02;30.40;29.90
81210;DHT22;70685;52.496;13.420;2023-07-13T08:10:28;30.10;30.20
81210;DHT22;70685;52.496;13.420;2023-07-13T08:12:56;30.00;30.30
81210;DHT22;70685;52.496;13.420;2023-07-13T08:15:22;29.70;30.30
81210;DHT22;70685;52.496;13.420;2023-07-13T08:17:48;29.40;31.10
81210;DHT22;70685;52.496;13.420;2023-07-13T08:20:16;29.40;31.20
81210;DHT22;70685;52.496;13.420;2023-07-13T08:22:42;29.70;30.60
81210;DHT22;70685;52.496;13.420;2023-07-13T08:25:10;30.10;29.90
81210;DHT22;70685;52.496;13.420;2023-07-13T08:27:36;29.90;29.80
81210;DHT22;70685;52.496;13.420;2023-07-13T08:30:02;29.50;30.10
81210;DHT22;70685;52.496;13.420;2023-07-13T08:32:28;29.50;30.60
81210;DHT22;70685;52.496;13.420;2023-07-13T08:34:53;30.00;29.70
81210;DHT22;70685;52.496;13.420;2023-07-13T08:37:19;30.20;29.50
81210;DHT22;70685;52.496;13.420;2023-07-13T08:39:45;30.40;29.60
81210;DHT22;70685;52.496;13.420;2023-07-13T08:42:36;30.10;29.70
81210;DHT22;70685;52.496;13.420;2023-07-13T08:47:41;30.20;30.10
81210;DHT22;70685;52.496;13.420;2023-07-13T08:50:13;30.10;29.90
81210;DHT22;70685;52.496;13.420;2023-07-13T08:52:42;29.80;30.30
81210;DHT22;70685;52.496;13.420;2023-07-13T08:55:24;29.40;31.20
81210;DHT22;70685;52.496;13.420;2023-07-13T08:58:12;28.90;31.70
81210;DHT22;70685;52.496;13.420;2023-07-13T09:03:18;28.30;32.90
81210;DHT22;70685;52.496;13.420;2023-07-13T09:05:52;28.30;32.60
81210;DHT22;70685;52.496;13.420;2023-07-13T09:16:17;33.20;26.60
81210;DHT22;70685;52.496;13.420;2023-07-13T09:18:48;33.30;25.90
81210;DHT22;70685;52.496;13.420;2023-07-13T09:21:23;33.90;26.00
81210;DHT22;70685;52.496;13.420;2023-07-13T09:23:54;34.60;24.90
81210;DHT22;70685;52.496;13.420;2023-07-13T09:26:23;35.10;24.30
81210;DHT22;70685;52.496;13.420;2023-07-13T09:28:54;35.00;23.90
81210;DHT22;70685;52.496;13.420;2023-07-13T09:31:32;35.40;24.00
81210;DHT22;70685;52.496;13.420;2023-07-13T09:34:02;35.90;23.30
81210;DHT22;70685;52.496;13.420;2023-07-13T09:36:29;35.90;23.40
81210;DHT22;70685;52.496;13.420;2023-07-13T09:44:13;36.70;23.00
81210;DHT22;70685;52.496;13.420;2023-07-13T09:46:43;36.70;22.00
81210;DHT22;70685;52.496;13.420;2023-07-13T09:49:12;37.10;21.60
81210;DHT22;70685;52.496;13.420;2023-07-13T09:51:43;36.30;22.10
81210;DHT22;70685;52.496;13.420;2023-07-13T09:54:24;35.90;21.80
81210;DHT22;70685;52.496;13.420;2023-07-13T09:56:57;34.80;22.50
81210;DHT22;70685;52.496;13.420;2023-07-13T09:59:40;34.10;23.70
81210;DHT22;70685;52.496;13.420;2023-07-13T10:05:03;33.80;23.90
81210;DHT22;70685;52.496;13.420;2023-07-13T10:07:30;32.70;24.80
81210;DHT22;70685;52.496;13.420;2023-07-13T10:09:58;31.50;25.90
81210;DHT22;70685;52.496;13.420;2023-07-13T10:12:27;30.50;26.80
81210;DHT22;70685;52.496;13.420;2023-07-13T10:15:00;29.60;27.70
81210;DHT22;70685;52.496;13.420;2023-07-13T10:17:31;29.10;28.70
81210;DHT22;70685;52.496;13.420;2023-07-13T10:20:04;30.10;28.40
81210;DHT22;70685;52.496;13.420;2023-07-13T10:23:04;30.80;27.20
81210;DHT22;70685;52.496;13.420;2023-07-13T10:25:33;31.00;27.10
81210;DHT22;70685;52.496;13.420;2023-07-13T10:30:53;30.60;27.10
81210;DHT22;70685;52.496;13.420;2023-07-13T10:33:19;30.50;27.00
81210;DHT22;70685;52.496;13.420;2023-07-13T10:35:47;30.00;28.00
81210;DHT22;70685;52.496;13.420;2023-07-13T10:38:23;29.80;27.80
81210;DHT22;70685;52.496;13.420;2023-07-13T10:40:56;30.30;27.00
81210;DHT22;70685;52.496;13.420;2023-07-13T10:43:35;30.70;26.80
81210;DHT22;70685;52.496;13.420;2023-07-13T10:46:06;30.60;26.70
81210;DHT22;70685;52.496;13.420;2023-07-13T10:48:34;30.60;26.90
81210;DHT22;70685;52.496;13.420;2023-07-13T10:51:04;30.50;27.10
81210;DHT22;70685;52.496;13.420;2023-07-13T10:53:34;30.50;26.70
81210;DHT22;70685;52.496;13.420;2023-07-13T10:56:04;31.30;26.60
81210;DHT22;70685;52.496;13.420;2023-07-13T10:58:38;31.90;25.50
81210;DHT22;70685;52.496;13.420;2023-07-13T11:04:00;32.20;25.30
81210;DHT22;70685;52.496;13.420;2023-07-13T11:11:43;31.90;25.10
81210;DHT22;70685;52.496;13.420;2023-07-13T11:15:00;32.40;24.60
81210;DHT22;70685;52.496;13.420;2023-07-13T11:17:54;33.10;24.50
81210;DHT22;70685;52.496;13.420;2023-07-13T11:20:48;33.80;23.90
81210;DHT22;70685;52.496;13.420;2023-07-13T11:25:43;33.70;23.70
81210;DHT22;70685;52.496;13.420;2023-07-13T11:33:17;33.60;23.20
81210;DHT22;70685;52.496;13.420;2023-07-13T11:38:46;33.60;23.40
81210;DHT22;70685;52.496;13.420;2023-07-13T11:43:48;33.40;23.30
81210;DHT22;70685;52.496;13.420;2023-07-13T11:46:22;33.20;24.20
81210;DHT22;70685;52.496;13.420;2023-07-13T11:48:49;33.30;24.40
81210;DHT22;70685;52.496;13.420;2023-07-13T11:51:27;33.40;24.20
81210;DHT22;70685;52.496;13.420;2023-07-13T11:54:05;33.60;23.90
81210;DHT22;70685;52.496;13.420;2023-07-13T11:56:33;33.70;24.00
81210;DHT22;70685;52.496;13.420;2023-07-13T11:59:05;33.40;24.10
81210;DHT22;70685;52.496;13.420;2023-07-13T12:01:32;33.20;24.40
81210;DHT22;70685;52.496;13.420;2023-07-13T12:04:00;33.20;23.80
81210;DHT22;70685;52.496;13.420;2023-07-13T12:06:38;33.20;23.60
81210;DHT22;70685;52.496;13.420;2023-07-13T12:09:12;33.30;23.70
81210;DHT22;70685;52.496;13.420;2023-07-13T12:11:41;33.40;23.80
81210;DHT22;70685;52.496;13.420;2023-07-13T12:14:17;33.10;23.80
81210;DHT22;70685;52.496;13.420;2023-07-13T12:16:47;33.30;23.90
81210;DHT22;70685;52.496;13.420;2023-07-13T12:19:23;33.30;23.90
81210;DHT22;70685;52.496;13.420;2023-07-13T12:21:53;33.30;24.00
81210;DHT22;70685;52.496;13.420;2023-07-13T12:24:21;33.40;24.40
81210;DHT22;70685;52.496;13.420;2023-07-13T12:26:59;33.50;24.10
81210;DHT22;70685;52.496;13.420;2023-07-13T12:29:26;33.60;24.30
81210;DHT22;70685;52.496;13.420;2023-07-13T12:31:52;33.30;24.30
81210;DHT22;70685;52.496;13.420;2023-07-13T12:34:24;32.30;24.60
81210;DHT22;70685;52.496;13.420;2023-07-13T12:39:37;32.00;25.10
81210;DHT22;70685;52.496;13.420;2023-07-13T12:47:25;32.30;25.20
81210;DHT22;70685;52.496;13.420;2023-07-13T12:49:57;32.00;25.50
81210;DHT22;70685;52.496;13.420;2023-07-13T12:52:30;31.80;25.20
81210;DHT22;70685;52.496;13.420;2023-07-13T12:55:07;31.70;24.60
81210;DHT22;70685;52.496;13.420;2023-07-13T13:02:51;31.20;25.90
81210;DHT22;70685;52.496;13.420;2023-07-13T13:05:18;31.30;25.60
81210;DHT22;70685;52.496;13.420;2023-07-13T13:07:46;31.30;25.70
81210;DHT22;70685;52.496;13.420;2023-07-13T13:10:13;31.40;25.30
81210;DHT22;70685;52.496;13.420;2023-07-13T13:12:39;31.00;25.30
81210;DHT22;70685;52.496;13.420;2023-07-13T13:15:09;30.90;25.60
81210;DHT22;70685;52.496;13.420;2023-07-13T13:17:37;30.90;25.60
81210;DHT22;70685;52.496;13.420;2023-07-13T13:20:18;31.00;25.70
81210;DHT22;70685;52.496;13.420;2023-07-13T13:22:44;31.20;25.70
81210;DHT22;70685;52.496;13.420;2023-07-13T13:25:14;31.20;25.50
81210;DHT22;70685;52.496;13.420;2023-07-13T13:27:43;31.10;25.60
81210;DHT22;70685;52.496;13.420;2023-07-13T13:30:16;31.50;25.90
81210;DHT22;70685;52.496;13.420;2023-07-13T13:32:44;31.80;25.60
81210;DHT22;70685;52.496;13.420;2023-07-13T13:35:17;32.20;25.40
81210;DHT22;70685;52.496;13.420;2023-07-13T13:37:44;32.30;25.40
81210;DHT22;70685;52.496;13.420;2023-07-13T13:40:15;32.30;25.20
81210;DHT22;70685;52.496;13.420;2023-07-13T13:42:41;32.50;25.00
81210;DHT22;70685;52.496;13.420;2023-07-13T13:45:13;32.50;24.90
81210;DHT22;70685;52.496;13.420;2023-07-13T13:47:39;32.40;24.40
81210;DHT22;70685;52.496;13.420;2023-07-13T13:50:17;32.10;24.80
81210;DHT22;70685;52.496;13.420;2023-07-13T13:52:44;31.80;24.60
81210;DHT22;70685;52.496;13.420;2023-07-13T13:55:18;31.90;24.90
81210;DHT22;70685;52.496;13.420;2023-07-13T13:57:48;32.10;24.70
81210;DHT22;70685;52.496;13.420;2023-07-13T14:00:16;32.30;24.90
81210;DHT22;70685;52.496;13.420;2023-07-13T14:02:45;32.60;25.20
81210;DHT22;70685;52.496;13.420;2023-07-13T14:05:22;32.30;24.70
81210;DHT22;70685;52.496;13.420;2023-07-13T14:07:48;32.00;25.70
81210;DHT22;70685;52.496;13.420;2023-07-13T14:10:17;31.50;25.20
81210;DHT22;70685;52.496;13.420;2023-07-13T14:12:45;31.00;25.50
81210;DHT22;70685;52.496;13.420;2023-07-13T14:15:26;30.90;25.60
81210;DHT22;70685;52.496;13.420;2023-07-13T14:17:53;31.00;25.70
81210;DHT22;70685;52.496;13.420;2023-07-13T14:20:21;30.70;25.60
81210;DHT22;70685;52.496;13.420;2023-07-13T14:22:53;30.40;25.80
81210;DHT22;70685;52.496;13.420;2023-07-13T14:25:21;30.00;26.00
81210;DHT22;70685;52.496;13.420;2023-07-13T14:27:49;29.90;26.80
81210;DHT22;70685;52.496;13.420;2023-07-13T14:30:19;30.00;26.60
81210;DHT22;70685;52.496;13.420;2023-07-13T14:32:45;29.90;27.00
81210;DHT22;70685;52.496;13.420;2023-07-13T14:35:13;29.60;27.40
81210;DHT22;70685;52.496;13.420;2023-07-13T14:37:39;29.30;27.60
81210;DHT22;70685;52.496;13.420;2023-07-13T14:40:17;29.20;27.70
81210;DHT22;70685;52.496;13.420;2023-07-13T14:42:44;29.70;27.60
81210;DHT22;70685;52.496;13.420;2023-07-13T14:45:14;30.20;27.20
81210;DHT22;70685;52.496;13.420;2023-07-13T14:47:43;30.40;26.80
81210;DHT22;70685;52.496;13.420;2023-07-13T14:50:18;30.50;26.70
81210;DHT22;70685;52.496;13.420;2023-07-13T14:52:45;30.70;26.40
81210;DHT22;70685;52.496;13.420;2023-07-13T14:55:16;31.00;26.60
81210;DHT22;70685;52.496;13.420;2023-07-13T14:57:42;31.20;26.30
81210;DHT22;70685;52.496;13.420;2023-07-13T15:00:19;31.20;26.10
81210;DHT22;70685;52.496;13.420;2023-07-13T15:02:55;31.10;26.10
81210;DHT22;70685;52.496;13.420;2023-07-13T15:05:27;31.10;26.20
81210;DHT22;70685;52.496;13.420;2023-07-13T15:08:01;31.00;25.90
81210;DHT22;70685;52.496;13.420;2023-07-13T15:10:32;31.10;26.00
81210;DHT22;70685;52.496;13.420;2023-07-13T15:13:16;30.90;25.90
81210;DHT22;70685;52.496;13.420;2023-07-13T15:15:46;30.70;26.40
81210;DHT22;70685;52.496;13.420;2023-07-13T15:18:17;30.40;26.50
81210;DHT22;70685;52.496;13.420;2023-07-13T15:20:48;30.10;26.40
81210;DHT22;70685;52.496;13.420;2023-07-13T15:23:16;30.20;26.30
81210;DHT22;70685;52.496;13.420;2023-07-13T15:25:43;30.30;26.30
81210;DHT22;70685;52.496;13.420;2023-07-13T15:28:11;30.00;26.00
81210;DHT22;70685;52.496;13.420;2023-07-13T15:30:45;29.80;26.10
81210;DHT22;70685;52.496;13.420;2023-07-13T15:33:19;29.80;26.30
81210;DHT22;70685;52.496;13.420;2023-07-13T15:35:48;29.80;26.10
81210;DHT22;70685;52.496;13.420;2023-07-13T15:38:24;29.60;26.10
81210;DHT22;70685;52.496;13.420;2023-07-13T15:40:52;29.40;26.20
81210;DHT22;70685;52.496;13.420;2023-07-13T15:43:19;29.20;26.70
81210;DHT22;70685;52.496;13.420;2023-07-13T15:45:47;28.90;26.90
81210;DHT22;70685;52.496;13.420;2023-07-13T15:48:16;28.80;27.20
81210;DHT22;70685;52.496;13.420;2023-07-13T15:50:51;28.60;27.20
81210;DHT22;70685;52.496;13.420;2023-07-13T15:53:23;28.40;27.70
81210;DHT22;70685;52.496;13.420;2023-07-13T15:55:50;28.30;28.00
81210;DHT22;70685;52.496;13.420;2023-07-13T15:58:17;28.20;28.30
81210;DHT22;70685;52.496;13.420;2023-07-13T16:00:44;28.10;28.40
81210;DHT22;70685;52.496;13.420;2023-07-13T16:03:10;28.10;28.40
81210;DHT22;70685;52.496;13.420;2023-07-13T16:05:36;28.10;28.50
81210;DHT22;70685;52.496;13.420;2023-07-13T16:08:05;27.90;28.50
81210;DHT22;70685;52.496;13.420;2023-07-13T16:10:34;27.70;28.70
81210;DHT22;70685;52.496;13.420;2023-07-13T16:13:09;27.40;28.60
81210;DHT22;70685;52.496;13.420;2023-07-13T16:15:39;27.40;28.30
81210;DHT22;70685;52.496;13.420;2023-07-13T16:18:10;27.40;28.50
81210;DHT22;70685;52.496;13.420;2023-07-13T16:20:37;27.40;28.40
81210;DHT22;70685;52.496;13.420;2023-07-13T16:23:05;27.40;28.50
81210;DHT22;70685;52.496;13.420;2023-07-13T16:25:33;27.50;28.50
81210;DHT22;70685;52.496;13.420;2023-07-13T16:28:01;27.50;28.20
81210;DHT22;70685;52.496;13.420;2023-07-13T16:30:29;27.40;28.30
81210;DHT22;70685;52.496;13.420;2023-07-13T16:32:59;27.30;28.20